Hafnia Rainier — 9V3226 — position and weather

sailwx.info

Track history (hours):
 
Tides and Currents Weather Stations Pressure Air Temp Water Temp Dewpoint Dewpoint Depression Visibility Wind Speed Wind Dir Waves Ship Positions

Hafnia Rainier

Last reported at 2017-Nov-25 04:00 UTC. Time now 2017-Nov-25 04:13 UTC.
Position N 57°34' E 011°40'.

Length 182 m; draft 9.4 m.

Type: Ship. MMSI: 565969000.

Date/timePositionNaut miles runAvg speedWind from/ knotsBaromVisibWave heightAir tempDewpointWater temp
2017-Nov-25 04:00N 57°34' E 011°40'1 1.4
2017-Nov-25 03:29N 57°34' E 011°39'0 0.0
2017-Nov-25 02:59N 57°34' E 011°39'0 0.0
2017-Nov-25 02:26N 57°34' E 011°39'0 0.0
2017-Nov-25 01:44N 57°34' E 011°39'0 0.0
2017-Nov-25 01:20N 57°34' E 011°39'0 0.0
2017-Nov-25 00:59N 57°34' E 011°39'0 0.0
2017-Nov-25 00:26N 57°34' E 011°39'0 0.0
2017-Nov-24 23:59N 57°34' E 011°39'0 0.0
2017-Nov-24 23:29N 57°34' E 011°39'0 0.1
2017-Nov-24 22:59N 57°34' E 011°39'0 0.0
2017-Nov-24 22:29N 57°34' E 011°39'0 0.0
2017-Nov-24 21:56N 57°34' E 011°39'0 0.0
2017-Nov-24 21:23N 57°34' E 011°39'0 0.0
2017-Nov-24 20:59N 57°34' E 011°39'0 0.0
2017-Nov-24 20:26N 57°34' E 011°40'0 0.0
2017-Nov-24 19:59N 57°34' E 011°39'0 0.0
2017-Nov-24 19:26N 57°34' E 011°39'0 0.0
2017-Nov-24 18:59N 57°34' E 011°39'0 0.0
2017-Nov-24 18:26N 57°34' E 011°39'0 0.0
2017-Nov-24 17:56N 57°34' E 011°39'0 0.0
2017-Nov-24 17:29N 57°34' E 011°39'0 0.0
2017-Nov-24 16:56N 57°34' E 011°39'0 0.2
2017-Nov-24 16:27N 57°34' E 011°39'1 1.6
2017-Nov-24 16:00N 57°34' E 011°38'4 7.1
2017-Nov-24 15:31N 57°30' E 011°35'611.8
2017-Nov-24 15:01N 57°25' E 011°32'610.9
2017-Nov-24 14:30N 57°19' E 011°33'611.7
2017-Nov-24 13:59N 57°14' E 011°37'612.0
2017-Nov-24 13:30N 57°08' E 011°40'611.9
2017-Nov-24 13:00N 57°03' E 011°44'  
2017-Nov-17 23:28N 51°36' E 002°22'511.2
2017-Nov-17 23:00N 51°31' E 002°17'510.9
2017-Nov-17 22:30N 51°27' E 002°12'4 7.8
2017-Nov-17 22:00N 51°23' E 002°09'5 9.5
2017-Nov-17 21:30N 51°21' E 002°16'510.1
2017-Nov-17 20:58N 51°22' E 002°24'611.4
2017-Nov-17 20:24N 51°24' E 002°34'1 1.6
2017-Nov-17 19:54N 51°24' E 002°35'0 0.0
2017-Nov-17 18:09N 51°24' E 002°35'0 0.0
2017-Nov-17 17:45N 51°24' E 002°35'0 0.0
2017-Nov-17 17:24N 51°24' E 002°35'0 0.1
2017-Nov-17 17:00N 51°24' E 002°35'0 0.1
2017-Nov-17 16:30N 51°24' E 002°35'0 0.1
2017-Nov-17 16:00N 51°24' E 002°36'0 0.2
2017-Nov-17 15:27N 51°24' E 002°36'0 0.1
2017-Nov-17 14:45N 51°24' E 002°36'0 0.0
2017-Nov-17 14:21N 51°24' E 002°36'0 0.0
2017-Nov-17 13:18N 51°24' E 002°36'0 0.0
2017-Nov-17 12:57N 51°24' E 002°36'0 0.0
2017-Nov-17 11:33N 51°24' E 002°36'0 0.1
2017-Nov-17 11:30N 51°24' E 002°36'0 0.1
2017-Nov-17 10:48N 51°24' E 002°36'0 0.2
2017-Nov-17 10:30N 51°24' E 002°36'0 0.2
2017-Nov-17 09:57N 51°24' E 002°35'0 0.1
2017-Nov-17 09:30N 51°24' E 002°35'0 0.0
2017-Nov-17 08:57N 51°24' E 002°35'0 0.0
2017-Nov-17 08:21N 51°24' E 002°35'0 0.0
2017-Nov-17 08:00N 51°24' E 002°35'0 0.0
2017-Nov-17 07:21N 51°24' E 002°35'0 0.0
2017-Nov-17 06:51N 51°24' E 002°35'0 0.0
2017-Nov-17 06:27N 51°24' E 002°35'0 0.0
2017-Nov-17 05:48N 51°24' E 002°35'0 0.0
2017-Nov-17 05:18N 51°24' E 002°35'0 0.0
2017-Nov-17 04:57N 51°24' E 002°35'0 0.0
2017-Nov-17 04:18N 51°24' E 002°35'0 0.0
2017-Nov-17 04:00N 51°24' E 002°35'0 0.1
2017-Nov-17 03:30N 51°24' E 002°35'0 0.0
2017-Nov-17 02:57N 51°24' E 002°35'0 0.2
2017-Nov-17 02:18N 51°24' E 002°36'0 0.1
2017-Nov-17 02:00N 51°24' E 002°36'0 0.0
2017-Nov-17 01:09N 51°24' E 002°36'0 0.0
2017-Nov-17 00:54N 51°24' E 002°36'0 0.1
2017-Nov-17 00:03N 51°24' E 002°36'0 0.1
2017-Nov-16 23:33N 51°24' E 002°36'0 0.1
2017-Nov-16 23:30N 51°24' E 002°36'0 0.1
2017-Nov-16 22:51N 51°24' E 002°36'0 0.0
2017-Nov-16 22:24N 51°24' E 002°36'0 0.0
2017-Nov-16 21:57N 51°24' E 002°36'0 0.1
2017-Nov-16 21:24N 51°24' E 002°35'0 0.1
2017-Nov-16 20:09N 51°24' E 002°36'0 0.5
2017-Nov-16 19:54N 51°24' E 002°35'0 0.1
2017-Nov-16 19:18N 51°24' E 002°36'0 0.0
2017-Nov-16 18:57N 51°24' E 002°36'0 0.0
2017-Nov-16 18:30N 51°24' E 002°36'0 0.0
2017-Nov-16 17:33N 51°24' E 002°36'0 0.2
2017-Nov-16 17:03N 51°24' E 002°36'0 0.2
2017-Nov-16 16:51N 51°24' E 002°36'0 0.2
2017-Nov-16 16:27N 51°24' E 002°36'0 0.1
2017-Nov-16 16:00N 51°24' E 002°36'0 0.0
2017-Nov-16 15:30N 51°24' E 002°36'0 0.0
2017-Nov-16 15:00N 51°24' E 002°36'0 0.0
2017-Nov-16 14:18N 51°24' E 002°36'0 0.0
2017-Nov-16 14:00N 51°24' E 002°36'0 0.0
2017-Nov-16 13:30N 51°24' E 002°36'0 0.0
2017-Nov-16 13:00N 51°24' E 002°36'0 0.0
2017-Nov-16 12:30N 51°24' E 002°36'0 0.0
2017-Nov-16 12:00N 51°24' E 002°36'0 0.0
2017-Nov-16 11:27N 51°24' E 002°36'0 0.0
2017-Nov-16 11:00N 51°24' E 002°36'0 0.0
2017-Nov-16 10:24N 51°24' E 002°36'0 0.0
2017-Nov-16 09:51N 51°24' E 002°36'0 0.0
2017-Nov-16 09:30N 51°24' E 002°36'0 0.4
2017-Nov-16 08:57N 51°24' E 002°36'0 0.1
2017-Nov-16 08:27N 51°24' E 002°36'0 0.0
2017-Nov-16 07:03N 51°24' E 002°35'0 0.0
2017-Nov-16 06:54N 51°24' E 002°35'0 0.0
2017-Nov-16 05:30N 51°24' E 002°35'0 0.1
2017-Nov-16 04:57N 51°24' E 002°35'0 0.1
2017-Nov-16 04:18N 51°24' E 002°36'0 0.1
2017-Nov-16 03:51N 51°24' E 002°36'0 0.1
2017-Nov-16 03:21N 51°24' E 002°36'0 0.8
2017-Nov-16 02:58N 51°25' E 002°36'5 9.5
2017-Nov-16 02:30N 51°23' E 002°43'611.5
2017-Nov-16 02:00N 51°22' E 002°52'612.4
2017-Nov-16 01:30N 51°24' E 003°01'612.5
2017-Nov-16 01:00N 51°24' E 003°11'612.5
2017-Nov-16 00:30N 51°25' E 003°21'612.5
2017-Nov-16 00:00N 51°25' E 003°31'511.1
2017-Nov-15 23:30N 51°27' E 003°40'1 1.2
2017-Nov-15 23:00N 51°27' E 003°40'0 0.0
2017-Nov-15 22:30N 51°27' E 003°40'0 0.0
2017-Nov-15 21:57N 51°27' E 003°40'0 0.0
2017-Nov-15 21:15N 51°27' E 003°40'0 0.0
2017-Nov-15 20:51N 51°27' E 003°40'0 0.0
2017-Nov-15 20:27N 51°27' E 003°40'0 0.0
2017-Nov-15 19:51N 51°27' E 003°40'0 0.0
2017-Nov-15 19:21N 51°27' E 003°40'0 0.0
2017-Nov-15 18:57N 51°27' E 003°40'0 0.0
2017-Nov-15 18:27N 51°27' E 003°40'0 0.0
2017-Nov-15 17:57N 51°27' E 003°40'0 0.0
2017-Nov-15 17:27N 51°27' E 003°40'0 0.0
2017-Nov-15 16:57N 51°27' E 003°40'0 0.0
2017-Nov-15 16:27N 51°27' E 003°40'0 0.0
2017-Nov-15 15:57N 51°27' E 003°40'0 0.0
2017-Nov-15 14:57N 51°27' E 003°40'0 0.0
2017-Nov-15 13:51N 51°27' E 003°40'0 0.0
2017-Nov-15 13:24N 51°27' E 003°40'0 0.0
2017-Nov-15 12:51N 51°27' E 003°40'0 0.0
2017-Nov-15 12:18N 51°27' E 003°40'0 0.0
2017-Nov-15 11:57N 51°27' E 003°40'0 0.0
2017-Nov-15 11:21N 51°27' E 003°40'0 0.0
2017-Nov-15 11:00N 51°27' E 003°40'0 0.0
2017-Nov-15 10:15N 51°27' E 003°40'0 0.0
2017-Nov-15 09:57N 51°27' E 003°40'0 0.0
2017-Nov-15 09:24N 51°27' E 003°40'0 0.0
2017-Nov-15 08:51N 51°27' E 003°40'0 0.0
2017-Nov-15 08:24N 51°27' E 003°40'0 0.0
2017-Nov-15 08:00N 51°27' E 003°40'0 0.0
2017-Nov-15 07:27N 51°27' E 003°40'0 0.0
2017-Nov-15 07:00N 51°27' E 003°40'0 0.0
2017-Nov-15 06:18N 51°27' E 003°40'0 0.0
2017-Nov-15 05:57N 51°27' E 003°40'0 0.0
2017-Nov-15 05:27N 51°27' E 003°40'0 0.0
2017-Nov-15 04:54N 51°27' E 003°40'0 0.0
2017-Nov-15 04:27N 51°27' E 003°40'  
Track history (hours):
 
Tides and Currents Weather Stations Pressure Air Temp Water Temp Dewpoint Dewpoint Depression Visibility Wind Speed Wind Dir Waves Ship Positions

Hafnia Rainier

Last reported at 2017-Nov-25 04:00 UTC. Time now 2017-Nov-25 04:13 UTC.
Position N 57°34' E 011°40'.

Length 182 m; draft 9.4 m.

Type: Ship. MMSI: 565969000.

Date/timePositionNaut miles runAvg speedWind from/ knotsBaromVisibWave heightAir tempDewpointWater temp
2017-Nov-25 04:00N 57°34' E 011°40'1 1.4
2017-Nov-25 03:29N 57°34' E 011°39'0 0.0
2017-Nov-25 02:59N 57°34' E 011°39'0 0.0
2017-Nov-25 02:26N 57°34' E 011°39'0 0.0
2017-Nov-25 01:44N 57°34' E 011°39'0 0.0
2017-Nov-25 01:20N 57°34' E 011°39'0 0.0
2017-Nov-25 00:59N 57°34' E 011°39'0 0.0
2017-Nov-25 00:26N 57°34' E 011°39'0 0.0
2017-Nov-24 23:59N 57°34' E 011°39'0 0.0
2017-Nov-24 23:29N 57°34' E 011°39'0 0.1
2017-Nov-24 22:59N 57°34' E 011°39'0 0.0
2017-Nov-24 22:29N 57°34' E 011°39'0 0.0
2017-Nov-24 21:56N 57°34' E 011°39'0 0.0
2017-Nov-24 21:23N 57°34' E 011°39'0 0.0
2017-Nov-24 20:59N 57°34' E 011°39'0 0.0
2017-Nov-24 20:26N 57°34' E 011°40'0 0.0
2017-Nov-24 19:59N 57°34' E 011°39'0 0.0
2017-Nov-24 19:26N 57°34' E 011°39'0 0.0
2017-Nov-24 18:59N 57°34' E 011°39'0 0.0
2017-Nov-24 18:26N 57°34' E 011°39'0 0.0
2017-Nov-24 17:56N 57°34' E 011°39'0 0.0
2017-Nov-24 17:29N 57°34' E 011°39'0 0.0
2017-Nov-24 16:56N 57°34' E 011°39'0 0.2
2017-Nov-24 16:27N 57°34' E 011°39'1 1.6
2017-Nov-24 16:00N 57°34' E 011°38'4 7.1
2017-Nov-24 15:31N 57°30' E 011°35'611.8
2017-Nov-24 15:01N 57°25' E 011°32'610.9
2017-Nov-24 14:30N 57°19' E 011°33'611.7
2017-Nov-24 13:59N 57°14' E 011°37'612.0
2017-Nov-24 13:30N 57°08' E 011°40'611.9
2017-Nov-24 13:00N 57°03' E 011°44'  
2017-Nov-17 23:28N 51°36' E 002°22'511.2
2017-Nov-17 23:00N 51°31' E 002°17'510.9
2017-Nov-17 22:30N 51°27' E 002°12'4 7.8
2017-Nov-17 22:00N 51°23' E 002°09'5 9.5
2017-Nov-17 21:30N 51°21' E 002°16'510.1
2017-Nov-17 20:58N 51°22' E 002°24'611.4
2017-Nov-17 20:24N 51°24' E 002°34'1 1.6
2017-Nov-17 19:54N 51°24' E 002°35'0 0.0
2017-Nov-17 18:09N 51°24' E 002°35'0 0.0
2017-Nov-17 17:45N 51°24' E 002°35'0 0.0
2017-Nov-17 17:24N 51°24' E 002°35'0 0.1
2017-Nov-17 17:00N 51°24' E 002°35'0 0.1
2017-Nov-17 16:30N 51°24' E 002°35'0 0.1
2017-Nov-17 16:00N 51°24' E 002°36'0 0.2
2017-Nov-17 15:27N 51°24' E 002°36'0 0.1
2017-Nov-17 14:45N 51°24' E 002°36'0 0.0
2017-Nov-17 14:21N 51°24' E 002°36'0 0.0
2017-Nov-17 13:18N 51°24' E 002°36'0 0.0
2017-Nov-17 12:57N 51°24' E 002°36'0 0.0
2017-Nov-17 11:33N 51°24' E 002°36'0 0.1
2017-Nov-17 11:30N 51°24' E 002°36'0 0.1
2017-Nov-17 10:48N 51°24' E 002°36'0 0.2
2017-Nov-17 10:30N 51°24' E 002°36'0 0.2
2017-Nov-17 09:57N 51°24' E 002°35'0 0.1
2017-Nov-17 09:30N 51°24' E 002°35'0 0.0
2017-Nov-17 08:57N 51°24' E 002°35'0 0.0
2017-Nov-17 08:21N 51°24' E 002°35'0 0.0
2017-Nov-17 08:00N 51°24' E 002°35'0 0.0
2017-Nov-17 07:21N 51°24' E 002°35'0 0.0
2017-Nov-17 06:51N 51°24' E 002°35'0 0.0
2017-Nov-17 06:27N 51°24' E 002°35'0 0.0
2017-Nov-17 05:48N 51°24' E 002°35'0 0.0
2017-Nov-17 05:18N 51°24' E 002°35'0 0.0
2017-Nov-17 04:57N 51°24' E 002°35'0 0.0
2017-Nov-17 04:18N 51°24' E 002°35'0 0.0
2017-Nov-17 04:00N 51°24' E 002°35'0 0.1
2017-Nov-17 03:30N 51°24' E 002°35'0 0.0
2017-Nov-17 02:57N 51°24' E 002°35'0 0.2
2017-Nov-17 02:18N 51°24' E 002°36'0 0.1
2017-Nov-17 02:00N 51°24' E 002°36'0 0.0
2017-Nov-17 01:09N 51°24' E 002°36'0 0.0
2017-Nov-17 00:54N 51°24' E 002°36'0 0.1
2017-Nov-17 00:03N 51°24' E 002°36'0 0.1
2017-Nov-16 23:33N 51°24' E 002°36'0 0.1
2017-Nov-16 23:30N 51°24' E 002°36'0 0.1
2017-Nov-16 22:51N 51°24' E 002°36'0 0.0
2017-Nov-16 22:24N 51°24' E 002°36'0 0.0
2017-Nov-16 21:57N 51°24' E 002°36'0 0.1
2017-Nov-16 21:24N 51°24' E 002°35'0 0.1
2017-Nov-16 20:09N 51°24' E 002°36'0 0.5
2017-Nov-16 19:54N 51°24' E 002°35'0 0.1
2017-Nov-16 19:18N 51°24' E 002°36'0 0.0
2017-Nov-16 18:57N 51°24' E 002°36'0 0.0
2017-Nov-16 18:30N 51°24' E 002°36'0 0.0
2017-Nov-16 17:33N 51°24' E 002°36'0 0.2
2017-Nov-16 17:03N 51°24' E 002°36'0 0.2
2017-Nov-16 16:51N 51°24' E 002°36'0 0.2
2017-Nov-16 16:27N 51°24' E 002°36'0 0.1
2017-Nov-16 16:00N 51°24' E 002°36'0 0.0
2017-Nov-16 15:30N 51°24' E 002°36'0 0.0
2017-Nov-16 15:00N 51°24' E 002°36'0 0.0
2017-Nov-16 14:18N 51°24' E 002°36'0 0.0
2017-Nov-16 14:00N 51°24' E 002°36'0 0.0
2017-Nov-16 13:30N 51°24' E 002°36'0 0.0
2017-Nov-16 13:00N 51°24' E 002°36'0 0.0
2017-Nov-16 12:30N 51°24' E 002°36'0 0.0
2017-Nov-16 12:00N 51°24' E 002°36'0 0.0
2017-Nov-16 11:27N 51°24' E 002°36'0 0.0
2017-Nov-16 11:00N 51°24' E 002°36'0 0.0
2017-Nov-16 10:24N 51°24' E 002°36'0 0.0
2017-Nov-16 09:51N 51°24' E 002°36'0 0.0
2017-Nov-16 09:30N 51°24' E 002°36'0 0.4
2017-Nov-16 08:57N 51°24' E 002°36'0 0.1
2017-Nov-16 08:27N 51°24' E 002°36'0 0.0
2017-Nov-16 07:03N 51°24' E 002°35'0 0.0
2017-Nov-16 06:54N 51°24' E 002°35'0 0.0
2017-Nov-16 05:30N 51°24' E 002°35'0 0.1
2017-Nov-16 04:57N 51°24' E 002°35'0 0.1
2017-Nov-16 04:18N 51°24' E 002°36'0 0.1
2017-Nov-16 03:51N 51°24' E 002°36'0 0.1
2017-Nov-16 03:21N 51°24' E 002°36'0 0.8
2017-Nov-16 02:58N 51°25' E 002°36'5 9.5
2017-Nov-16 02:30N 51°23' E 002°43'611.5
2017-Nov-16 02:00N 51°22' E 002°52'612.4
2017-Nov-16 01:30N 51°24' E 003°01'612.5
2017-Nov-16 01:00N 51°24' E 003°11'612.5
2017-Nov-16 00:30N 51°25' E 003°21'612.5
2017-Nov-16 00:00N 51°25' E 003°31'511.1
2017-Nov-15 23:30N 51°27' E 003°40'1 1.2
2017-Nov-15 23:00N 51°27' E 003°40'0 0.0
2017-Nov-15 22:30N 51°27' E 003°40'0 0.0
2017-Nov-15 21:57N 51°27' E 003°40'0 0.0
2017-Nov-15 21:15N 51°27' E 003°40'0 0.0
2017-Nov-15 20:51N 51°27' E 003°40'0 0.0
2017-Nov-15 20:27N 51°27' E 003°40'0 0.0
2017-Nov-15 19:51N 51°27' E 003°40'0 0.0
2017-Nov-15 19:21N 51°27' E 003°40'0 0.0
2017-Nov-15 18:57N 51°27' E 003°40'0 0.0
2017-Nov-15 18:27N 51°27' E 003°40'0 0.0
2017-Nov-15 17:57N 51°27' E 003°40'0 0.0
2017-Nov-15 17:27N 51°27' E 003°40'0 0.0
2017-Nov-15 16:57N 51°27' E 003°40'0 0.0
2017-Nov-15 16:27N 51°27' E 003°40'0 0.0
2017-Nov-15 15:57N 51°27' E 003°40'0 0.0
2017-Nov-15 14:57N 51°27' E 003°40'0 0.0
2017-Nov-15 13:51N 51°27' E 003°40'0 0.0
2017-Nov-15 13:24N 51°27' E 003°40'0 0.0
2017-Nov-15 12:51N 51°27' E 003°40'0 0.0
2017-Nov-15 12:18N 51°27' E 003°40'0 0.0
2017-Nov-15 11:57N 51°27' E 003°40'0 0.0
2017-Nov-15 11:21N 51°27' E 003°40'0 0.0
2017-Nov-15 11:00N 51°27' E 003°40'0 0.0
2017-Nov-15 10:15N 51°27' E 003°40'0 0.0
2017-Nov-15 09:57N 51°27' E 003°40'0 0.0
2017-Nov-15 09:24N 51°27' E 003°40'0 0.0
2017-Nov-15 08:51N 51°27' E 003°40'0 0.0
2017-Nov-15 08:24N 51°27' E 003°40'0 0.0
2017-Nov-15 08:00N 51°27' E 003°40'0 0.0
2017-Nov-15 07:27N 51°27' E 003°40'0 0.0
2017-Nov-15 07:00N 51°27' E 003°40'0 0.0
2017-Nov-15 06:18N 51°27' E 003°40'0 0.0
2017-Nov-15 05:57N 51°27' E 003°40'0 0.0
2017-Nov-15 05:27N 51°27' E 003°40'0 0.0
2017-Nov-15 04:54N 51°27' E 003°40'0 0.0
2017-Nov-15 04:27N 51°27' E 003°40'  

Dump ship's entire track history